Terminal Aerodrome Forecast
Issued by NWS

Home | Current Version | Previous Version | Text Only | Print | Product List | Glossary On
Versions: 1 2 3 4 5 6 7 8 9 10 11 12
000
FTUS45 KRIW 072300
TAFCPR
TAF
KCPR 072332Z 0800/0824 03015G22KT P6SM SCT070
     FM080400 05010G16KT P6SM SCT040 BKN070
     FM081500 VRB06KT P6SM SCT060 BKN090=

USA.gov is the U.S. government's official web portal to all federal, state and local government web resources and services.